Time;durP1;ratioP1;P1;durP2;ratioP2;P2;SDS_P1;SDS_P2;PMS_P1;PMS_P2;Temp;Humidity;BMP_temperature;BMP_pressure;BME280_temperature;BME280_humidity;BME280_pressure;Samples;Min_cycle;Max_cycle;Signal;HPM_P1;HPM_P2
2021/06/07 00:01:11;;;;;;;33.13;24.52;;;17.70;99.90;;;;;;5009741;28;20092;-64
2021/06/07 00:03:38;;;;;;;36.13;25.95;;;17.70;99.90;;;;;;5011077;28;21630;-64
2021/06/07 00:06:05;;;;;;;33.20;25.10;;;17.70;99.90;;;;;;5011442;28;20339;-64
2021/06/07 00:08:33;;;;;;;37.45;25.88;;;17.60;99.90;;;;;;5010730;28;20135;-64
2021/06/07 00:11:00;;;;;;;37.67;27.55;;;17.60;99.90;;;;;;5010344;28;20046;-64
2021/06/07 00:13:27;;;;;;;37.53;25.20;;;17.60;99.90;;;;;;5010970;28;20080;-64
2021/06/07 00:15:55;;;;;;;36.47;24.85;;;17.60;99.90;;;;;;5011152;28;20079;-64
2021/06/07 00:18:23;;;;;;;40.55;26.02;;;17.60;99.90;;;;;;5007263;28;20057;-64
2021/06/07 00:20:53;;;;;;;34.40;23.80;;;17.60;99.90;;;;;;5002295;28;20052;-64
2021/06/07 00:23:20;;;;;;;35.45;24.55;;;17.60;99.90;;;;;;5009556;28;20147;-64
2021/06/07 00:25:52;;;;;;;36.30;25.38;;;17.60;99.90;;;;;;5009597;28;20045;-64
2021/06/07 00:28:18;;;;;;;36.65;25.45;;;17.60;99.90;;;;;;5010339;28;20057;-64
2021/06/07 00:30:45;;;;;;;36.88;25.60;;;17.60;99.90;;;;;;5009207;28;20092;-64
2021/06/07 00:33:12;;;;;;;36.30;26.02;;;17.60;99.90;;;;;;5010573;28;20129;-64
2021/06/07 00:35:38;;;;;;;37.58;26.13;;;17.60;99.90;;;;;;5011678;28;20430;-64
2021/06/07 00:38:05;;;;;;;41.83;27.35;;;17.50;99.90;;;;;;5009525;28;20049;-64
2021/06/07 00:40:32;;;;;;;39.08;26.77;;;17.50;99.90;;;;;;5010474;28;20045;-65
2021/06/07 00:43:00;;;;;;;42.05;28.05;;;17.50;99.90;;;;;;5009095;28;20427;-64
2021/06/07 00:45:29;;;;;;;35.58;25.30;;;17.50;99.90;;;;;;5008841;28;20446;-66
2021/06/07 00:47:58;;;;;;;36.95;26.08;;;17.40;99.90;;;;;;5009697;28;20510;-64
2021/06/07 00:50:33;;;;;;;36.95;26.00;;;17.40;99.90;;;;;;5007753;28;20184;-64
2021/06/07 00:53:03;;;;;;;40.15;26.75;;;17.50;99.90;;;;;;5008617;28;20179;-64
2021/06/07 00:55:32;;;;;;;39.85;27.92;;;17.40;99.90;;;;;;5008274;28;20057;-65
2021/06/07 00:58:00;;;;;;;44.78;28.30;;;17.40;99.90;;;;;;5009159;28;20136;-65
2021/06/07 01:00:28;;;;;;;40.10;28.05;;;17.40;99.90;;;;;;5007881;28;20753;-65
2021/06/07 01:02:56;;;;;;;40.58;27.98;;;17.40;99.90;;;;;;5009299;28;20469;-65
2021/06/07 01:05:23;;;;;;;38.30;27.58;;;17.40;99.90;;;;;;5008297;28;20104;-65
2021/06/07 01:07:50;;;;;;;40.38;28.33;;;17.40;99.90;;;;;;5008485;28;20080;-65
2021/06/07 01:10:17;;;;;;;44.72;27.30;;;17.40;99.90;;;;;;5008173;28;20093;-65
2021/06/07 01:12:43;;;;;;;40.65;27.50;;;17.40;99.90;;;;;;5008656;28;20049;-65
2021/06/07 01:15:13;;;;;;;36.30;24.92;;;17.40;99.90;;;;;;5007780;28;20588;-65
2021/06/07 01:17:40;;;;;;;38.85;26.10;;;17.40;99.90;;;;;;5009536;28;20136;-64
2021/06/07 01:20:09;;;;;;;38.20;25.25;;;17.40;99.90;;;;;;5010577;28;20046;-64
2021/06/07 01:22:38;;;;;;;38.22;24.85;;;17.40;99.90;;;;;;5011365;28;20080;-65
2021/06/07 01:25:08;;;;;;;40.28;27.10;;;17.30;99.90;;;;;;5013943;28;20089;-64
2021/06/07 01:27:35;;;;;;;37.08;25.63;;;17.30;99.90;;;;;;5013969;28;20053;-65
2021/06/07 01:30:05;;;;;;;36.05;25.48;;;17.30;99.90;;;;;;5013134;28;20413;-64
2021/06/07 01:32:32;;;;;;;37.03;23.75;;;17.30;99.90;;;;;;5013268;28;20053;-65
2021/06/07 01:34:59;;;;;;;37.00;25.50;;;17.30;99.90;;;;;;5014237;28;20068;-65
2021/06/07 01:37:26;;;;;;;36.03;24.45;;;17.30;99.90;;;;;;5012968;28;20048;-65
2021/06/07 01:39:54;;;;;;;35.08;25.00;;;17.30;99.90;;;;;;5010741;28;20054;-64
2021/06/07 01:42:20;;;;;;;40.80;24.63;;;17.30;99.90;;;;;;5011053;28;20407;-66
2021/06/07 01:44:47;;;;;;;40.10;25.67;;;17.30;99.90;;;;;;5010306;28;20100;-66
2021/06/07 01:47:13;;;;;;;36.03;24.55;;;17.20;99.90;;;;;;5010580;28;20573;-64
2021/06/07 01:49:40;;;;;;;34.70;23.25;;;17.30;99.90;;;;;;5011006;28;20245;-64
2021/06/07 01:52:06;;;;;;;31.90;22.73;;;17.20;99.90;;;;;;5010526;28;20158;-64
2021/06/07 01:54:33;;;;;;;36.13;24.42;;;17.30;99.90;;;;;;5010172;28;20413;-66
2021/06/07 01:57:01;;;;;;;32.22;23.73;;;17.20;99.90;;;;;;5010838;28;20394;-64
2021/06/07 01:59:27;;;;;;;36.55;23.65;;;17.20;99.90;;;;;;5010382;28;20103;-64
2021/06/07 02:01:54;;;;;;;38.38;25.17;;;17.20;99.90;;;;;;5009970;28;21185;-65
2021/06/07 02:04:21;;;;;;;35.88;23.92;;;17.20;99.90;;;;;;5014621;28;20058;-64
2021/06/07 02:06:48;;;;;;;35.95;23.95;;;17.20;99.90;;;;;;5014311;28;20045;-64
2021/06/07 02:09:15;;;;;;;35.92;24.17;;;17.20;99.90;;;;;;5014381;28;20053;-65
2021/06/07 02:11:41;;;;;;;39.05;26.08;;;17.20;99.90;;;;;;5013773;28;20099;-65
2021/06/07 02:14:10;;;;;;;38.40;25.08;;;17.20;99.90;;;;;;5014665;28;20115;-64
2021/06/07 02:16:38;;;;;;;39.75;25.70;;;17.20;99.90;;;;;;5014890;28;20387;-64
2021/06/07 02:19:07;;;;;;;37.35;26.02;;;17.20;99.90;;;;;;5014190;28;20080;-64
2021/06/07 02:21:35;;;;;;;39.50;26.20;;;17.20;99.90;;;;;;5013501;28;20089;-64
2021/06/07 02:24:04;;;;;;;38.95;27.10;;;17.20;99.90;;;;;;5014105;28;20048;-64
2021/06/07 02:26:31;;;;;;;39.47;26.25;;;17.20;99.90;;;;;;5013914;28;20045;-64
2021/06/07 02:29:00;;;;;;;40.20;25.75;;;17.20;99.90;;;;;;5016139;28;20072;-66
2021/06/07 02:31:29;;;;;;;39.78;25.67;;;17.20;99.90;;;;;;5013707;28;20049;-64
2021/06/07 02:33:58;;;;;;;44.22;29.40;;;17.20;99.90;;;;;;5016757;28;20057;-63
2021/06/07 02:36:26;;;;;;;42.03;27.65;;;17.20;99.90;;;;;;5015143;28;20605;-65
2021/06/07 02:38:53;;;;;;;45.05;29.15;;;17.20;99.90;;;;;;5010411;28;20095;-64
2021/06/07 02:41:20;;;;;;;58.28;30.10;;;17.20;99.90;;;;;;5009861;28;20049;-65
2021/06/07 02:43:47;;;;;;;44.08;26.85;;;17.20;99.90;;;;;;5013032;28;20053;-63
2021/06/07 02:46:14;;;;;;;42.40;27.75;;;17.20;99.90;;;;;;5016024;28;20045;-66
2021/06/07 02:48:42;;;;;;;41.47;28.08;;;17.20;99.90;;;;;;5015202;28;20056;-65
2021/06/07 02:51:09;;;;;;;44.05;28.50;;;17.20;99.90;;;;;;5015403;28;20520;-64
2021/06/07 02:53:35;;;;;;;51.63;29.00;;;17.20;99.90;;;;;;5015543;28;20687;-65
2021/06/07 02:56:02;;;;;;;48.72;30.80;;;17.10;99.90;;;;;;5015954;28;20516;-64
2021/06/07 02:58:29;;;;;;;48.00;31.13;;;17.20;99.90;;;;;;5015304;28;20517;-64
2021/06/07 03:00:58;;;;;;;48.10;30.10;;;17.20;99.90;;;;;;5015493;28;20459;-64
2021/06/07 03:03:25;;;;;;;48.20;30.85;;;17.10;99.90;;;;;;5015684;28;20057;-64
2021/06/07 03:05:54;;;;;;;46.58;30.42;;;17.30;99.90;;;;;;5015262;28;20049;-64
2021/06/07 03:08:22;;;;;;;49.42;31.05;;;17.30;99.90;;;;;;5010624;28;20142;-65
2021/06/07 03:10:51;;;;;;;49.28;30.27;;;17.20;99.90;;;;;;5008756;28;20057;-64
2021/06/07 03:13:18;;;;;;;46.47;28.85;;;17.20;99.90;;;;;;5010561;28;20117;-64
2021/06/07 03:15:45;;;;;;;45.90;29.80;;;17.10;99.90;;;;;;5010550;28;20560;-64
2021/06/07 03:18:12;;;;;;;42.33;27.55;;;17.20;99.90;;;;;;5010079;28;20076;-64
2021/06/07 03:20:39;;;;;;;45.17;29.70;;;17.30;99.90;;;;;;5009037;28;20053;-64
2021/06/07 03:23:10;;;;;;;50.70;30.67;;;17.30;99.90;;;;;;5010018;28;20041;-64
2021/06/07 03:25:36;;;;;;;44.03;28.85;;;17.20;99.90;;;;;;5009167;28;20068;-65
2021/06/07 03:28:05;;;;;;;47.28;30.30;;;17.20;99.90;;;;;;5012803;28;20395;-65
2021/06/07 03:30:31;;;;;;;53.72;32.60;;;17.20;99.90;;;;;;5011558;28;20115;-65
2021/06/07 03:32:58;;;;;;;53.90;33.50;;;17.20;99.90;;;;;;5012203;28;20045;-65
2021/06/07 03:35:25;;;;;;;50.88;32.53;;;17.20;99.90;;;;;;5013135;28;20391;-65
2021/06/07 03:37:52;;;;;;;53.72;34.20;;;17.10;99.90;;;;;;5012533;28;20532;-65
2021/06/07 03:40:23;;;;;;;59.97;34.95;;;17.20;99.90;;;;;;5012499;28;20514;-65
2021/06/07 03:42:50;;;;;;;57.22;34.13;;;17.20;99.90;;;;;;5014555;28;20509;-65
2021/06/07 03:45:17;;;;;;;56.17;34.22;;;17.20;99.90;;;;;;5014600;28;20045;-64
2021/06/07 03:47:44;;;;;;;60.40;36.28;;;17.30;99.90;;;;;;5013490;28;20049;-64
2021/06/07 03:50:14;;;;;;;68.22;37.38;;;17.20;99.90;;;;;;5013368;28;20111;-64
2021/06/07 03:52:41;;;;;;;62.65;36.97;;;17.20;99.90;;;;;;5012338;28;20053;-63
2021/06/07 03:55:11;;;;;;;60.42;34.80;;;17.30;99.90;;;;;;5013732;28;20081;-64
2021/06/07 03:57:39;;;;;;;55.55;34.70;;;17.30;99.90;;;;;;5013702;28;20533;-65
2021/06/07 04:00:08;;;;;;;65.47;38.20;;;17.30;99.90;;;;;;5012698;28;20049;-64
2021/06/07 04:02:35;;;;;;;61.05;35.33;;;17.40;99.90;;;;;;5013836;28;20057;-65
2021/06/07 04:05:02;;;;;;;60.90;35.33;;;17.30;99.90;;;;;;5010576;28;20497;-65
2021/06/07 04:07:28;;;;;;;63.58;36.53;;;17.30;99.90;;;;;;5009663;28;20789;-65
2021/06/07 04:09:56;;;;;;;67.93;37.00;;;17.30;99.90;;;;;;5008020;28;20076;-63
2021/06/07 04:12:22;;;;;;;59.17;35.05;;;17.30;99.90;;;;;;5008453;28;20520;-64
2021/06/07 04:14:50;;;;;;;62.60;35.15;;;17.30;99.90;;;;;;5008179;28;20056;-64
2021/06/07 04:17:18;;;;;;;66.88;36.10;;;17.30;99.90;;;;;;5008967;28;20088;-64
2021/06/07 04:19:45;;;;;;;57.85;34.38;;;17.40;99.90;;;;;;5007836;28;20676;-64
2021/06/07 04:22:11;;;;;;;52.40;31.88;;;17.30;99.90;;;;;;5008535;28;20517;-64
2021/06/07 04:24:38;;;;;;;57.70;32.83;;;17.30;99.90;;;;;;5010745;28;20414;-64
2021/06/07 04:27:06;;;;;;;65.20;35.13;;;17.30;99.90;;;;;;5009308;28;20045;-64
2021/06/07 04:29:33;;;;;;;61.83;34.70;;;17.30;99.90;;;;;;5007983;28;20056;-64
2021/06/07 04:32:01;;;;;;;56.75;33.78;;;17.30;99.90;;;;;;5009125;28;20059;-63
2021/06/07 04:34:27;;;;;;;55.42;32.00;;;17.30;99.90;;;;;;5011351;28;20053;-64
2021/06/07 04:36:54;;;;;;;60.22;34.13;;;17.30;99.90;;;;;;5010620;28;20465;-64
2021/06/07 04:39:20;;;;;;;55.88;31.48;;;17.40;99.90;;;;;;5010765;28;20056;-64
2021/06/07 04:41:46;;;;;;;54.97;31.73;;;17.30;99.90;;;;;;5009857;28;20085;-64
2021/06/07 04:44:13;;;;;;;54.47;32.13;;;17.40;99.90;;;;;;5010708;28;20050;-65
2021/06/07 04:46:39;;;;;;;54.88;34.40;;;17.40;99.90;;;;;;5010388;28;20054;-65
2021/06/07 04:49:07;;;;;;;61.63;31.90;;;17.40;99.90;;;;;;5009385;28;20053;-64
2021/06/07 04:51:34;;;;;;;53.60;30.92;;;17.40;99.90;;;;;;5010672;28;20096;-64
2021/06/07 04:54:01;;;;;;;54.00;31.52;;;17.40;99.90;;;;;;5011998;28;20130;-64
2021/06/07 04:56:27;;;;;;;57.17;32.35;;;17.40;99.90;;;;;;5010674;28;20132;-64
2021/06/07 04:58:53;;;;;;;56.35;32.38;;;17.40;99.90;;;;;;5011767;28;20087;-65
2021/06/07 05:01:20;;;;;;;55.08;32.03;;;17.30;99.90;;;;;;5009747;28;20077;-65
2021/06/07 05:03:46;;;;;;;60.33;33.95;;;17.30;99.90;;;;;;5008651;28;20091;-64
2021/06/07 05:06:14;;;;;;;54.53;30.60;;;17.40;99.90;;;;;;5009013;28;20049;-64
2021/06/07 05:08:41;;;;;;;55.55;32.25;;;17.40;99.90;;;;;;5007910;28;20057;-64
2021/06/07 05:11:07;;;;;;;61.85;32.67;;;17.40;99.90;;;;;;5006920;28;20056;-64
2021/06/07 05:13:34;;;;;;;52.55;29.98;;;17.40;99.90;;;;;;5009282;28;20466;-64
2021/06/07 05:16:01;;;;;;;57.75;32.05;;;17.40;99.90;;;;;;5008132;28;20073;-64
2021/06/07 05:18:28;;;;;;;54.58;30.63;;;17.40;99.90;;;;;;5007643;28;20517;-64
2021/06/07 05:20:54;;;;;;;49.75;29.13;;;17.50;99.90;;;;;;5006350;28;20213;-64
2021/06/07 05:23:23;;;;;;;48.45;29.17;;;17.50;99.90;;;;;;5007779;28;20061;-64
2021/06/07 05:25:50;;;;;;;52.33;30.55;;;17.60;99.90;;;;;;5007024;28;20092;-64
2021/06/07 05:28:18;;;;;;;47.42;30.13;;;17.60;99.90;;;;;;5006880;28;20057;-64
2021/06/07 05:30:47;;;;;;;49.20;29.50;;;17.70;99.90;;;;;;5006541;28;20099;-64
2021/06/07 05:33:14;;;;;;;48.83;29.63;;;17.60;99.90;;;;;;5007729;28;20423;-64
2021/06/07 05:35:43;;;;;;;54.38;30.23;;;17.70;99.90;;;;;;5007461;28;20057;-64
2021/06/07 05:38:11;;;;;;;51.45;30.00;;;17.70;99.90;;;;;;5009011;28;20431;-64
2021/06/07 05:40:39;;;;;;;49.92;29.60;;;17.70;99.90;;;;;;5010635;28;20191;-64
2021/06/07 05:43:06;;;;;;;47.42;28.30;;;17.70;99.90;;;;;;5011155;28;20486;-64
2021/06/07 05:45:33;;;;;;;50.88;29.38;;;17.70;99.90;;;;;;5010754;28;20522;-64
2021/06/07 05:48:00;;;;;;;51.55;30.23;;;17.80;99.90;;;;;;5011964;28;20514;-64
2021/06/07 05:50:28;;;;;;;46.83;29.48;;;17.80;99.90;;;;;;5011094;28;20625;-64
2021/06/07 05:52:55;;;;;;;52.67;29.38;;;17.80;99.90;;;;;;5010685;28;20099;-65
2021/06/07 05:55:27;;;;;;;51.63;28.10;;;17.80;99.90;;;;;;5010596;28;20121;-64
2021/06/07 05:57:58;;;;;;;47.50;28.83;;;17.90;99.90;;;;;;5010818;28;20129;-64
2021/06/07 06:00:26;;;;;;;47.97;28.75;;;17.90;99.90;;;;;;5010540;28;20289;-64
2021/06/07 06:02:53;;;;;;;47.47;27.95;;;17.90;99.90;;;;;;5011250;28;20514;-64
2021/06/07 06:05:20;;;;;;;46.85;28.52;;;17.90;99.90;;;;;;5011626;28;20431;-64
2021/06/07 06:07:47;;;;;;;43.95;27.58;;;17.90;99.90;;;;;;5010381;28;20061;-64
2021/06/07 06:10:16;;;;;;;50.30;28.35;;;18.00;99.90;;;;;;5009712;28;20049;-64
2021/06/07 06:12:43;;;;;;;48.15;28.52;;;18.00;99.90;;;;;;5011242;28;20096;-64
2021/06/07 06:15:12;;;;;;;46.97;27.77;;;18.00;99.90;;;;;;5010536;28;20052;-64
2021/06/07 06:17:39;;;;;;;45.95;28.40;;;18.00;99.90;;;;;;5010231;28;20159;-64
2021/06/07 06:20:08;;;;;;;43.63;26.65;;;18.10;99.90;;;;;;5011374;28;20082;-64
2021/06/07 06:22:34;;;;;;;42.10;26.15;;;18.20;99.90;;;;;;5010520;28;20088;-64
2021/06/07 06:25:02;;;;;;;47.97;28.00;;;18.20;99.90;;;;;;5009760;28;20584;-64
2021/06/07 06:27:28;;;;;;;43.65;26.90;;;18.10;99.90;;;;;;5010436;28;20195;-64
2021/06/07 06:29:55;;;;;;;43.80;27.38;;;18.20;99.90;;;;;;5009118;28;20164;-64
2021/06/07 06:32:23;;;;;;;43.30;28.00;;;18.20;99.90;;;;;;5010235;28;20345;-64
2021/06/07 06:34:49;;;;;;;42.38;25.85;;;18.20;99.90;;;;;;5009948;28;20476;-64
2021/06/07 06:37:16;;;;;;;47.28;27.27;;;18.20;99.90;;;;;;5011104;28;20045;-65
2021/06/07 06:39:43;;;;;;;46.83;26.48;;;18.20;99.90;;;;;;5009421;28;20111;-64
2021/06/07 06:42:10;;;;;;;40.83;26.88;;;18.30;99.90;;;;;;5009942;28;20069;-64
2021/06/07 06:44:36;;;;;;;42.42;24.55;;;18.40;99.90;;;;;;5009911;28;20053;-65
2021/06/07 06:47:04;;;;;;;40.55;25.35;;;18.40;99.90;;;;;;5009797;28;20077;-64
2021/06/07 06:49:32;;;;;;;38.78;24.90;;;18.60;99.90;;;;;;5010561;28;20498;-65
2021/06/07 06:51:59;;;;;;;37.20;25.20;;;18.70;99.90;;;;;;5008315;28;20521;-65
2021/06/07 06:54:26;;;;;;;40.83;25.33;;;18.60;99.90;;;;;;5010266;28;20049;-64
2021/06/07 06:56:52;;;;;;;43.08;26.13;;;18.70;99.90;;;;;;5009638;28;21072;-65
2021/06/07 06:59:20;;;;;;;34.55;22.92;;;18.70;99.90;;;;;;5009928;28;20049;-64
2021/06/07 07:01:47;;;;;;;36.13;23.27;;;18.80;99.90;;;;;;5009001;28;20100;-64
2021/06/07 07:04:13;;;;;;;37.75;23.70;;;19.00;99.90;;;;;;5009537;28;20528;-64
2021/06/07 07:06:41;;;;;;;41.05;22.98;;;19.10;99.90;;;;;;5010070;28;20498;-64
2021/06/07 07:09:08;;;;;;;37.58;23.08;;;18.90;99.90;;;;;;5010118;28;20095;-64
2021/06/07 07:11:34;;;;;;;31.98;21.13;;;19.10;99.90;;;;;;5007947;28;20076;-64
2021/06/07 07:14:01;;;;;;;36.33;21.80;;;19.30;99.90;;;;;;5006133;28;20092;-64
2021/06/07 07:16:28;;;;;;;36.00;21.65;;;19.40;99.90;;;;;;5009463;28;20061;-64
2021/06/07 07:18:55;;;;;;;36.55;21.58;;;19.50;99.90;;;;;;5008891;28;20081;-64
2021/06/07 07:21:21;;;;;;;32.03;21.15;;;19.70;99.90;;;;;;5006448;28;20092;-64
2021/06/07 07:23:49;;;;;;;30.88;20.85;;;19.70;99.90;;;;;;5009427;28;20088;-64
2021/06/07 07:26:16;;;;;;;32.92;20.83;;;19.70;99.90;;;;;;5008685;28;20111;-64
2021/06/07 07:28:43;;;;;;;31.73;20.05;;;19.80;99.90;;;;;;5008899;28;20057;-64
2021/06/07 07:31:10;;;;;;;31.45;21.05;;;19.80;99.90;;;;;;5008700;28;21021;-64
2021/06/07 07:33:38;;;;;;;30.60;20.13;;;19.90;99.90;;;;;;5008198;28;20136;-64
2021/06/07 07:36:33;;;;;;;30.35;20.08;;;20.00;99.90;;;;;;5014073;28;20088;-65
2021/06/07 07:39:01;;;;;;;27.45;18.85;;;20.00;99.90;;;;;;5010626;28;20161;-64
2021/06/07 07:41:28;;;;;;;29.52;19.05;;;20.00;99.90;;;;;;5008685;28;20060;-64
2021/06/07 07:43:55;;;;;;;30.08;19.23;;;20.20;99.90;;;;;;5010580;28;20517;-64
2021/06/07 07:46:21;;;;;;;28.00;18.95;;;20.20;99.90;;;;;;5008819;28;20049;-62
2021/06/07 07:48:48;;;;;;;29.48;18.98;;;20.20;99.90;;;;;;5008910;28;20414;-62
2021/06/07 07:51:14;;;;;;;27.15;18.60;;;20.20;99.90;;;;;;5007121;28;20053;-62
2021/06/07 07:53:41;;;;;;;33.03;19.48;;;20.40;99.90;;;;;;5008024;28;20054;-62
2021/06/07 07:56:09;;;;;;;27.77;18.83;;;20.60;99.90;;;;;;5009362;28;20041;-63
2021/06/07 07:58:36;;;;;;;31.92;18.25;;;20.80;99.90;;;;;;5008722;28;20521;-62
2021/06/07 08:01:03;;;;;;;27.15;19.00;;;20.80;99.90;;;;;;5007397;28;20045;-63
2021/06/07 08:03:29;;;;;;;25.88;17.52;;;20.90;99.90;;;;;;5008613;28;20061;-63
2021/06/07 08:05:56;;;;;;;28.02;17.92;;;21.10;99.90;;;;;;5007544;28;20497;-62
2021/06/07 08:08:23;;;;;;;27.83;17.23;;;21.10;99.90;;;;;;5008325;28;20060;-63
2021/06/07 08:10:55;;;;;;;23.83;17.35;;;21.30;99.90;;;;;;5007895;28;20089;-62
2021/06/07 08:13:23;;;;;;;25.13;17.30;;;21.40;99.90;;;;;;5008597;28;20068;-63
2021/06/07 08:15:49;;;;;;;27.20;17.35;;;21.30;99.90;;;;;;5008152;28;20388;-62
2021/06/07 08:18:16;;;;;;;25.70;16.50;;;21.30;99.90;;;;;;5009023;28;20055;-62
2021/06/07 08:20:43;;;;;;;27.13;17.70;;;21.40;99.90;;;;;;5006972;28;20423;-62
2021/06/07 08:23:09;;;;;;;24.00;16.75;;;21.40;99.90;;;;;;5007615;28;20084;-62
2021/06/07 08:25:36;;;;;;;21.92;16.77;;;21.40;99.90;;;;;;5008283;28;20061;-62
2021/06/07 08:28:03;;;;;;;23.98;16.52;;;21.40;99.90;;;;;;5007967;28;20045;-62
2021/06/07 08:30:33;;;;;;;25.45;16.33;;;21.50;99.90;;;;;;5006914;28;20053;-62
2021/06/07 08:32:59;;;;;;;23.52;15.63;;;21.70;99.90;;;;;;5008029;28;20049;-62
2021/06/07 08:35:26;;;;;;;24.77;16.85;;;21.80;99.90;;;;;;5007395;28;20056;-62
2021/06/07 08:37:54;;;;;;;24.30;15.50;;;21.80;99.90;;;;;;5007691;28;20056;-63
2021/06/07 08:40:20;;;;;;;21.45;14.93;;;22.10;99.90;;;;;;5006523;28;20107;-63
2021/06/07 08:42:47;;;;;;;21.05;14.70;;;22.40;99.90;;;;;;5006519;28;20391;-62
2021/06/07 08:45:16;;;;;;;20.42;14.88;;;22.70;99.90;;;;;;5007402;28;20045;-62
2021/06/07 08:47:45;;;;;;;20.60;15.30;;;22.90;99.90;;;;;;5008088;28;20053;-63
2021/06/07 08:50:13;;;;;;;22.73;14.40;;;23.30;99.90;;;;;;5007771;28;20088;-62
2021/06/07 08:52:43;;;;;;;23.20;15.07;;;23.50;99.90;;;;;;5007360;28;20061;-63
2021/06/07 08:55:12;;;;;;;20.23;14.30;;;23.60;99.90;;;;;;5007324;28;20049;-63
2021/06/07 08:57:40;;;;;;;21.70;14.07;;;23.90;99.90;;;;;;5007656;28;20050;-63
2021/06/07 09:00:08;;;;;;;19.55;14.38;;;24.30;99.90;;;;;;5006216;28;20191;-63
2021/06/07 09:02:36;;;;;;;18.20;14.35;;;24.50;99.90;;;;;;5006814;28;20517;-63
2021/06/07 09:05:05;;;;;;;19.02;14.18;;;24.70;99.90;;;;;;5006979;28;20057;-63
2021/06/07 09:07:32;;;;;;;20.38;14.38;;;24.60;99.90;;;;;;5007633;28;20089;-63
2021/06/07 09:10:09;;;;;;;20.05;13.82;;;24.80;99.90;;;;;;5006093;28;20076;-63
2021/06/07 09:12:36;;;;;;;19.80;13.60;;;24.90;99.90;;;;;;5008587;28;20057;-63
2021/06/07 09:15:04;;;;;;;19.85;14.27;;;24.90;99.90;;;;;;5009116;28;20049;-63
2021/06/07 09:17:31;;;;;;;21.17;13.63;;;24.80;99.90;;;;;;5007318;28;20876;-63
2021/06/07 09:20:15;;;;;;;17.48;13.15;;;24.90;99.90;;;;;;5007157;28;20538;-63
2021/06/07 09:22:49;;;;;;;20.50;14.07;;;24.90;99.90;;;;;;5004936;28;20382;-63
2021/06/07 09:25:16;;;;;;;19.27;14.07;;;25.00;99.90;;;;;;5008666;28;20075;-63
2021/06/07 09:28:03;;;;;;;20.10;14.43;;;24.80;99.90;;;;;;5009257;28;20403;-63
2021/06/07 09:30:32;;;;;;;;;;;24.50;99.90;;;;;;5006197;28;20061;-63
2021/06/07 09:33:22;;;;;;;20.45;14.35;;;24.50;99.90;;;;;;5006314;28;19953;-63
2021/06/07 09:36:08;;;;;;;17.20;12.38;;;24.50;99.90;;;;;;5008049;28;20108;-63
2021/06/07 09:38:49;;;;;;;19.20;13.37;;;24.50;99.90;;;;;;5006362;28;20061;-63
2021/06/07 09:41:16;;;;;;;19.10;13.20;;;24.50;99.90;;;;;;5005827;28;20115;-62
2021/06/07 09:43:48;;;;;;;20.20;14.15;;;24.20;99.90;;;;;;5006552;28;20057;-63
2021/06/07 09:46:14;;;;;;;20.85;15.25;;;24.10;99.90;;;;;;5007002;28;20533;-63
2021/06/07 09:48:41;;;;;;;18.13;13.63;;;23.90;99.90;;;;;;5006607;28;20061;-62
2021/06/07 09:51:09;;;;;;;23.40;13.30;;;23.90;99.90;;;;;;5006829;28;20048;-63
2021/06/07 09:53:43;;;;;;;18.92;13.73;;;23.80;99.90;;;;;;5007068;28;20498;-63
2021/06/07 09:56:10;;;;;;;19.83;14.60;;;23.60;99.90;;;;;;5006191;28;20099;-62
2021/06/07 09:58:37;;;;;;;20.15;15.15;;;23.60;99.90;;;;;;5006824;28;20144;-63
2021/06/07 10:01:12;;;;;;;21.10;15.50;;;23.60;99.90;;;;;;5005480;28;20041;-63
2021/06/07 10:03:42;;;;;;;23.30;13.73;;;23.50;99.90;;;;;;5006540;28;20058;-63
2021/06/07 10:06:22;;;;;;;23.25;14.73;;;23.40;99.90;;;;;;5005830;28;20053;-62
2021/06/07 10:08:52;;;;;;;21.13;14.73;;;23.30;99.90;;;;;;5005526;28;20099;-63
2021/06/07 10:11:21;;;;;;;19.52;13.98;;;23.30;99.90;;;;;;5005440;28;20513;-63
2021/06/07 10:13:49;;;;;;;24.25;15.30;;;23.50;99.90;;;;;;5006048;28;20384;-62
2021/06/07 10:16:17;;;;;;;20.30;15.30;;;23.60;99.90;;;;;;5007216;28;20045;-63
2021/06/07 10:18:44;;;;;;;23.67;14.60;;;23.40;99.90;;;;;;5006183;28;20076;-63
2021/06/07 10:21:11;;;;;;;18.92;13.90;;;23.50;99.90;;;;;;5006280;28;20053;-63
2021/06/07 10:23:39;;;;;;;23.33;15.50;;;23.30;99.90;;;;;;5006741;28;20057;-63
2021/06/07 10:26:07;;;;;;;18.10;13.27;;;23.40;99.90;;;;;;5009733;28;20056;-63
2021/06/07 10:28:35;;;;;;;21.02;14.88;;;23.60;99.90;;;;;;5010102;28;20111;-63
2021/06/07 10:31:10;;;;;;;18.23;13.48;;;23.60;99.90;;;;;;5009456;28;20514;-62
2021/06/07 10:33:38;;;;;;;21.40;13.23;;;23.80;99.90;;;;;;5009421;28;20060;-63
2021/06/07 10:36:34;;;;;;;19.10;13.38;;;23.60;99.90;;;;;;5009122;28;20501;-63
2021/06/07 10:39:23;;;;;;;23.10;13.52;;;23.90;99.90;;;;;;5010266;28;20334;-63
2021/06/07 10:42:11;;;;;;;18.52;13.02;;;24.20;99.90;;;;;;5008380;28;20357;-63
2021/06/07 10:44:40;;;;;;;16.90;12.65;;;24.10;99.90;;;;;;5009929;28;20053;-63
2021/06/07 10:47:09;;;;;;;17.55;13.63;;;24.30;99.90;;;;;;5009868;28;20502;-62
2021/06/07 10:49:37;;;;;;;17.70;11.82;;;24.40;99.90;;;;;;5009112;28;20072;-63
2021/06/07 10:52:09;;;;;;;20.52;12.63;;;24.60;99.90;;;;;;5010518;28;20049;-63
2021/06/07 10:54:38;;;;;;;18.48;12.63;;;24.40;99.90;;;;;;5008880;28;20086;-63
2021/06/07 10:57:34;;;;;;;16.17;11.82;;;24.80;99.90;;;;;;5009258;28;20061;-63
2021/06/07 11:00:05;;;;;;;17.52;12.10;;;25.20;99.90;;;;;;5008621;28;20053;-63
2021/06/07 11:02:35;;;;;;;17.77;13.00;;;25.40;99.90;;;;;;5009573;28;20481;-63
2021/06/07 11:05:07;;;;;;;15.30;11.55;;;25.00;99.90;;;;;;5008249;28;20501;-63
2021/06/07 11:07:34;;;;;;;15.00;12.40;;;25.60;99.90;;;;;;5008506;28;20116;-63
2021/06/07 11:10:27;;;;;;;16.10;11.55;;;25.90;99.90;;;;;;5006681;28;20506;-63
2021/06/07 11:12:55;;;;;;;15.10;11.85;;;26.10;99.90;;;;;;4989373;28;20049;-63
2021/06/07 11:15:24;;;;;;;16.05;12.15;;;26.10;99.90;;;;;;5008955;28;20107;-63
2021/06/07 11:17:51;;;;;;;15.30;11.40;;;26.30;99.90;;;;;;5009448;28;20084;-65
2021/06/07 11:20:34;;;;;;;15.48;11.57;;;26.50;99.90;;;;;;5010913;28;20045;-65
2021/06/07 11:23:12;;;;;;;14.20;11.07;;;26.50;99.90;;;;;;5006455;28;20137;-65
2021/06/07 11:25:52;;;;;;;16.17;11.77;;;26.50;99.90;;;;;;5009031;28;20049;-65
2021/06/07 11:28:44;;;;;;;17.25;11.10;;;26.70;99.90;;;;;;5011587;28;20099;-63
2021/06/07 11:31:50;;;;;;;17.65;11.50;;;27.00;99.90;;;;;;5008393;28;20092;-63
2021/06/07 11:34:20;;;;;;;14.90;11.70;;;27.00;99.90;;;;;;5008577;28;20319;-63
2021/06/07 11:36:58;;;;;;;19.48;11.68;;;27.20;99.90;;;;;;5007396;28;20064;-63
2021/06/07 11:39:26;;;;;;;16.40;11.52;;;27.20;99.90;;;;;;5009339;28;20080;-65
2021/06/07 11:42:03;;;;;;;16.08;12.50;;;27.30;99.90;;;;;;5007910;28;20049;-65
2021/06/07 11:44:50;;;;;;;19.52;11.82;;;27.50;99.90;;;;;;5008050;28;20135;-65
2021/06/07 11:47:18;;;;;;;16.63;12.40;;;27.50;99.90;;;;;;5008269;28;20061;-66
2021/06/07 11:50:19;;;;;;;15.05;12.10;;;27.70;99.90;;;;;;5007865;28;20057;-65
2021/06/07 11:52:49;;;;;;;15.43;11.57;;;27.80;99.90;;;;;;4928241;29;20567;-65
2021/06/07 11:55:28;;;;;;;17.17;12.18;;;27.30;99.90;;;;;;4927755;29;20657;-65
2021/06/07 11:58:25;;;;;;;14.63;11.38;;;27.30;99.90;;;;;;4972562;28;20450;-65
2021/06/07 12:00:54;;;;;;;15.93;12.13;;;27.20;99.90;;;;;;5009642;28;20101;-65
2021/06/07 12:03:22;;;;;;;20.33;12.10;;;27.00;99.90;;;;;;5013043;28;20147;-65
2021/06/07 12:05:49;;;;;;;14.30;11.48;;;27.80;99.90;;;;;;5009510;28;20076;-65
2021/06/07 12:08:18;;;;;;;15.38;11.30;;;28.20;99.90;;;;;;5010537;28;20319;-66
2021/06/07 12:10:51;;;;;;;15.45;12.00;;;28.40;99.90;;;;;;5008723;28;20049;-65
2021/06/07 12:13:25;;;;;;;15.35;11.57;;;28.30;99.90;;;;;;5010657;28;20502;-65
2021/06/07 12:15:53;;;;;;;15.07;11.07;;;28.10;99.90;;;;;;5009627;28;20088;-65
2021/06/07 12:18:35;;;;;;;16.48;11.52;;;28.20;99.90;;;;;;5010282;28;20102;-65
2021/06/07 12:21:05;;;;;;;15.23;11.05;;;28.00;99.90;;;;;;5009023;28;21000;-65
2021/06/07 12:23:35;;;;;;;16.00;11.00;;;28.30;99.90;;;;;;5010226;28;20045;-65
2021/06/07 12:29:25;;;;;;;16.33;10.55;;;29.30;99.90;;;;;;5009848;28;20060;-65
2021/06/07 12:32:07;;;;;;;13.85;11.38;;;29.80;99.90;;;;;;5010197;28;20057;-65
2021/06/07 12:34:38;;;;;;;12.75;9.90;;;30.10;99.90;;;;;;5011189;28;20065;-65
2021/06/07 12:37:05;;;;;;;13.73;10.07;;;30.50;99.90;;;;;;5009856;28;20406;-65
2021/06/07 12:39:32;;;;;;;11.63;10.07;;;30.80;99.90;;;;;;5007158;28;20045;-65
2021/06/07 12:41:59;;;;;;;15.68;9.73;;;30.90;99.90;;;;;;5008524;28;20053;-66